createdAt,value
2023-01-29T00:01:17.861Z,0.01
2023-01-29T00:16:20.567Z,-0.23
2023-01-29T00:31:25.523Z,-0.14
2023-01-29T00:46:28.422Z,-0.22
2023-01-29T01:01:49.907Z,-0.61
2023-01-29T01:16:52.592Z,-0.88
2023-01-29T01:31:55.443Z,-0.98
2023-01-29T01:47:01.568Z,-0.77
2023-01-29T02:02:25.117Z,-0.99
2023-01-29T02:17:28.311Z,-1.23
2023-01-29T02:32:54.228Z,-1.34
2023-01-29T02:48:00.216Z,-1.11
2023-01-29T03:03:12.349Z,-1.16
2023-01-29T03:18:22.032Z,-0.98
2023-01-29T03:33:49.008Z,-0.94
2023-01-29T03:49:20.659Z,-1.00
2023-01-29T04:04:40.888Z,-0.91
2023-01-29T04:19:44.380Z,-1.04
2023-01-29T04:35:21.793Z,-0.84
2023-01-29T04:50:36.579Z,-0.84
2023-01-29T05:05:57.386Z,-0.90
2023-01-29T05:21:05.940Z,-0.90
2023-01-29T05:36:09.319Z,-0.86
2023-01-29T05:51:11.787Z,-0.91
2023-01-29T06:06:15.158Z,-0.73
2023-01-29T06:21:19.943Z,-0.88
2023-01-29T06:36:37.484Z,-0.71
2023-01-29T06:51:40.247Z,-0.75
2023-01-29T07:06:44.294Z,-0.86
2023-01-29T07:21:47.281Z,-0.58
2023-01-29T07:36:54.018Z,-0.67
2023-01-29T07:51:56.908Z,-0.52
2023-01-29T08:06:59.835Z,-0.47
2023-01-29T08:22:04.950Z,-0.21
2023-01-29T08:37:07.836Z,-0.20
2023-01-29T08:52:10.701Z,0.03
2023-01-29T09:07:13.675Z,0.05
2023-01-29T09:22:16.524Z,0.16
2023-01-29T09:37:22.489Z,0.09
2023-01-29T09:52:38.483Z,0.25
2023-01-29T10:08:04.785Z,0.19
2023-01-29T10:23:16.819Z,0.34
2023-01-29T10:38:42.529Z,0.28
2023-01-29T10:54:15.454Z,0.48
2023-01-29T11:24:34.330Z,0.53
2023-01-29T11:39:46.757Z,0.54
2023-01-29T11:55:26.278Z,0.71
2023-01-29T12:10:40.574Z,0.72
2023-01-29T12:25:58.294Z,0.93
2023-01-29T12:41:28.017Z,0.97
2023-01-29T12:56:46.173Z,0.89
2023-01-29T13:11:55.268Z,0.93
2023-01-29T13:26:58.405Z,1.01
2023-01-29T13:42:16.453Z,0.81
2023-01-29T13:57:44.341Z,0.86
2023-01-29T14:13:09.266Z,0.99
2023-01-29T14:28:30.330Z,1.00
2023-01-29T14:43:33.999Z,0.93
2023-01-29T14:58:46.769Z,0.93
2023-01-29T15:13:58.444Z,0.85
2023-01-29T15:29:04.695Z,0.80
2023-01-29T15:44:22.913Z,0.96
2023-01-29T15:59:34.631Z,0.85
2023-01-29T16:14:39.117Z,0.85
2023-01-29T16:29:42.104Z,0.85
2023-01-29T16:45:22.921Z,0.92
2023-01-29T17:00:31.774Z,0.84
2023-01-29T17:15:44.821Z,0.97
2023-01-29T17:31:00.215Z,0.91
2023-01-29T17:46:14.794Z,0.85
2023-01-29T18:01:17.550Z,0.89
2023-01-29T18:16:24.206Z,0.93
2023-01-29T18:31:27.721Z,0.91
2023-01-29T18:46:30.956Z,0.93
2023-01-29T19:01:35.363Z,0.85
2023-01-29T19:16:38.664Z,0.82
2023-01-29T19:31:42.269Z,0.85
2023-01-29T19:46:46.280Z,0.84
2023-01-29T20:01:48.996Z,0.85
2023-01-29T20:16:51.948Z,0.84
2023-01-29T20:31:55.059Z,0.80
2023-01-29T20:47:01.491Z,0.81
2023-01-29T21:02:04.808Z,0.70
2023-01-29T21:17:08.190Z,0.61
2023-01-29T21:32:11.143Z,0.55
2023-01-29T21:47:14.139Z,0.61
2023-01-29T22:02:31.766Z,0.63
2023-01-29T22:17:34.865Z,0.59
2023-01-29T22:32:37.463Z,0.61
2023-01-29T22:47:54.894Z,0.59
2023-01-29T23:02:57.749Z,0.58
2023-01-29T23:18:00.457Z,0.55
2023-01-29T23:33:04.016Z,0.61
2023-01-29T23:48:06.688Z,0.57
